Terminal Aerodrome Forecast
Issued by NWS Twin Cities, MN

Home | Current Version | Previous Version | Graphics & Text | Print | Product List | Glossary Off
Versions: 1 2 3 4 5 6 7 8 9 10 11 12 13 14 15 16 17 18 19 20 21 22 23 24

640
FTUS43 KMPX 300520
TAFMSP
TAF
KMSP 300520Z 3006/3112 08011KT P6SM -RA BKN018 OVC024
     FM301600 06013G20KT P6SM OVC025
     FM310000 03008KT P6SM OVC040=

USA.gov is the U.S. government's official web portal to all federal, state and local government web resources and services.